Time;durP1;ratioP1;P1;durP2;ratioP2;P2;SDS_P1;SDS_P2;PMS_P1;PMS_P2;Temp;Humidity;BMP_temperature;BMP_pressure;BME280_temperature;BME280_humidity;BME280_pressure;Samples;Min_cycle;Max_cycle;Signal;HPM_P1;HPM_P2
2023/07/13 00:02:26;;;;;;;3.10;1.85;;;;;;;17.49;54.63;100050.44;10486225;28;20558;-74
2023/07/13 00:07:28;;;;;;;3.30;1.60;;;;;;;17.37;54.62;100050.44;10486321;28;20048;-74
2023/07/13 00:12:34;;;;;;;2.42;1.95;;;;;;;17.41;55.09;100043.03;10464184;28;20041;-74
2023/07/13 00:17:38;;;;;;;3.65;2.05;;;;;;;17.26;55.61;100041.72;10484756;28;20525;-74
2023/07/13 00:22:40;;;;;;;3.35;2.15;;;;;;;17.21;55.81;100038.34;10482023;28;20049;-74
2023/07/13 00:27:43;;;;;;;4.15;2.30;;;;;;;17.05;56.02;100032.59;10485007;28;20049;-74
2023/07/13 00:32:46;;;;;;;3.80;2.10;;;;;;;17.04;56.13;100036.53;10461572;28;20048;-74
2023/07/13 00:37:49;;;;;;;3.50;1.75;;;;;;;16.98;56.12;100016.50;10465566;28;20037;-74
2023/07/13 00:42:53;;;;;;;2.78;1.88;;;;;;;17.15;55.80;100013.56;10444637;28;20036;-74
2023/07/13 00:47:57;;;;;;;5.55;2.10;;;;;;;17.24;55.37;100012.69;10483294;28;20053;-74
2023/07/13 00:52:59;;;;;;;3.17;1.60;;;;;;;17.34;54.98;100003.94;10436696;28;20507;-74
2023/07/13 00:58:02;;;;;;;4.40;2.13;;;;;;;17.15;55.63;100005.25;10462402;28;20036;-74
2023/07/13 01:03:04;;;;;;;2.50;2.10;;;;;;;17.14;56.24;100019.47;10456792;28;20415;-74
2023/07/13 01:08:07;;;;;;;4.32;2.33;;;;;;;16.86;57.40;100002.59;10471933;28;20040;-74
2023/07/13 01:13:10;;;;;;;2.95;2.10;;;;;;;16.61;59.12;99990.53;10492227;28;20037;-74
2023/07/13 01:18:20;;;;;;;4.88;1.95;;;;;;;16.57;59.47;100003.44;10482670;28;20051;-74
2023/07/13 01:23:24;;;;;;;3.42;1.95;;;;;;;16.48;60.45;99992.41;10463576;28;20079;-74
2023/07/13 01:28:28;;;;;;;3.53;2.47;;;;;;;16.42;60.42;100002.06;10443722;28;20511;-74
2023/07/13 01:33:30;;;;;;;3.83;2.17;;;;;;;16.33;60.60;99990.25;10451761;28;20068;-74
2023/07/13 01:38:33;;;;;;;3.08;2.00;;;;;;;16.40;59.96;100000.78;10448645;28;20060;-74
2023/07/13 01:43:36;;;;;;;3.40;1.90;;;;;;;16.11;60.68;99999.63;10468856;28;20167;-74
2023/07/13 01:48:39;;;;;;;3.83;2.08;;;;;;;15.97;61.46;99994.34;10484931;28;20474;-74
2023/07/13 01:53:41;;;;;;;2.45;1.98;;;;;;;15.91;61.56;99987.38;10432563;28;20407;-74
2023/07/13 01:58:44;;;;;;;3.15;1.95;;;;;;;16.12;60.87;99989.38;10482269;28;20045;-74
2023/07/13 02:03:47;;;;;;;2.22;1.70;;;;;;;16.19;61.17;99978.59;10468632;28;20469;-73
2023/07/13 02:08:49;;;;;;;3.38;1.83;;;;;;;16.31;60.55;99980.63;10487496;28;20036;-73
2023/07/13 02:13:52;;;;;;;3.58;2.13;;;;;;;16.06;60.78;99969.38;10486914;28;20048;-73
2023/07/13 02:18:55;;;;;;;4.97;2.30;;;;;;;16.11;60.48;99973.91;10452066;28;20059;-73
2023/07/13 02:23:57;;;;;;;3.88;2.30;;;;;;;15.93;60.86;99962.94;10483020;28;20045;-73
2023/07/13 02:29:00;;;;;;;9.95;2.05;;;;;;;16.14;60.55;99959.41;10474019;28;20534;-74
2023/07/13 02:34:02;;;;;;;3.47;2.30;;;;;;;16.25;60.74;99980.03;10452068;28;20047;-74
2023/07/13 02:39:05;;;;;;;7.10;2.30;;;;;;;16.05;60.51;99973.31;10484482;28;20076;-72
2023/07/13 02:44:13;;;;;;;6.70;2.20;;;;;;;15.97;60.35;99980.53;10469330;28;20495;-73
2023/07/13 02:49:16;;;;;;;5.35;1.92;;;;;;;16.00;60.11;99976.28;10465512;28;20045;-74
2023/07/13 02:54:18;;;;;;;3.55;1.98;;;;;;;15.98;59.29;99979.38;10488476;28;20403;-75
2023/07/13 02:59:20;;;;;;;4.38;2.05;;;;;;;16.44;57.63;99987.88;10488336;28;20052;-74
2023/07/13 03:04:23;;;;;;;4.72;2.17;;;;;;;16.53;55.88;99988.66;10441039;28;20045;-74
2023/07/13 03:09:25;;;;;;;3.42;1.55;;;;;;;16.12;55.70;99989.38;10469904;28;20045;-74
2023/07/13 03:14:30;;;;;;;1.98;1.30;;;;;;;15.86;56.27;99986.75;10484842;28;20052;-74
2023/07/13 03:19:32;;;;;;;4.10;1.45;;;;;;;15.65;57.28;99997.75;10471542;28;20518;-74
2023/07/13 03:24:37;;;;;;;1.77;1.38;;;;;;;15.64;57.62;100004.41;10463957;28;20056;-75
2023/07/13 03:29:40;;;;;;;2.10;1.20;;;;;;;15.56;57.29;99994.97;10467201;28;20040;-74
2023/07/13 03:34:42;;;;;;;3.38;1.35;;;;;;;15.59;57.57;99991.56;10467885;28;20041;-74
2023/07/13 03:39:45;;;;;;;6.93;1.30;;;;;;;15.82;56.51;99991.34;10463107;28;20072;-74
2023/07/13 03:44:52;;;;;;;4.60;1.42;;;;;;;15.96;55.64;99976.09;10479694;28;20422;-73
2023/07/13 03:49:55;;;;;;;5.90;1.17;;;;;;;16.19;54.07;99967.53;10452571;28;20037;-74
2023/07/13 03:54:57;;;;;;;3.28;1.10;;;;;;;16.70;54.08;99960.84;10468660;28;20033;-73
2023/07/13 04:00:00;;;;;;;4.35;1.05;;;;;;;17.49;51.75;99947.81;10469750;28;20036;-75
2023/07/13 04:05:03;;;;;;;3.92;1.50;;;;;;;18.09;49.73;99957.38;10484401;28;20047;-74
2023/07/13 04:10:05;;;;;;;3.88;1.40;;;;;;;18.31;48.89;99968.00;10455153;28;20040;-74
2023/07/13 04:15:08;;;;;;;3.53;1.50;;;;;;;18.54;47.94;99964.69;10477026;28;20045;-74
2023/07/13 04:20:10;;;;;;;4.88;1.58;;;;;;;19.06;47.07;99961.06;10484370;28;20407;-74
2023/07/13 04:25:12;;;;;;;1.35;1.02;;;;;;;19.45;45.66;99949.06;10478162;28;20047;-74
2023/07/13 04:30:16;;;;;;;4.28;1.35;;;;;;;19.89;44.84;99949.00;10474310;28;20538;-75
2023/07/13 04:35:20;;;;;;;1.42;0.80;;;;;;;20.04;41.01;99947.38;10478118;28;20124;-74
2023/07/13 04:40:22;;;;;;;2.35;0.95;;;;;;;20.38;40.87;99962.47;10479926;28;20044;-74
2023/07/13 04:45:24;;;;;;;2.95;1.10;;;;;;;20.23;40.45;99958.56;10469570;28;20041;-75
2023/07/13 04:50:27;;;;;;;2.78;0.90;;;;;;;20.51;40.09;99952.88;10478470;28;20038;-74
2023/07/13 04:55:30;;;;;;;1.23;0.80;;;;;;;21.22;40.02;99934.00;10478349;28;20049;-74
2023/07/13 05:00:32;;;;;;;4.45;1.10;;;;;;;21.64;39.24;99934.78;10471461;28;20522;-73
2023/07/13 05:05:34;;;;;;;2.00;1.00;;;;;;;21.29;40.24;99943.31;10465823;28;20049;-73
2023/07/13 05:10:36;;;;;;;2.75;1.05;;;;;;;21.57;38.98;99945.03;10483466;28;20048;-74
2023/07/13 05:15:39;;;;;;;1.58;0.93;;;;;;;21.22;39.97;99934.78;10481122;28;20037;-73
2023/07/13 05:20:41;;;;;;;2.15;1.10;;;;;;;20.34;41.20;99942.09;10478382;28;20507;-73
2023/07/13 05:25:43;;;;;;;1.30;1.08;;;;;;;19.91;42.67;99948.63;10478499;28;20056;-73
2023/07/13 05:30:47;;;;;;;1.17;0.90;;;;;;;19.64;43.03;99950.34;10480253;28;20048;-74
2023/07/13 05:35:49;;;;;;;2.13;0.90;;;;;;;19.28;43.88;99950.22;10471769;28;20044;-74
2023/07/13 05:40:55;;;;;;;1.45;0.85;;;;;;;19.12;44.72;99951.34;10485990;28;20175;-74
2023/07/13 05:45:57;;;;;;;1.92;1.30;;;;;;;19.06;45.29;99956.31;10455219;28;20037;-74
2023/07/13 05:51:00;;;;;;;2.72;1.10;;;;;;;19.11;45.96;99955.28;10486243;28;20052;-74
2023/07/13 05:56:03;;;;;;;1.80;1.10;;;;;;;19.15;46.20;99958.97;10492403;28;20442;-74
2023/07/13 06:01:10;;;;;;;1.10;0.85;;;;;;;18.90;46.96;99953.50;10482314;28;20052;-74
2023/07/13 06:06:13;;;;;;;0.77;0.77;;;;;;;18.65;47.84;99950.00;10481191;28;20029;-74
2023/07/13 06:11:21;;;;;;;2.67;1.15;;;;;;;18.87;47.79;99947.84;10489254;28;20046;-75
2023/07/13 06:16:23;;;;;;;2.80;1.10;;;;;;;18.77;48.40;99951.94;10491063;28;20064;-74
2023/07/13 06:21:25;;;;;;;2.65;1.40;;;;;;;18.76;49.21;99950.31;10471518;28;20056;-74
2023/07/13 06:26:28;;;;;;;1.85;1.10;;;;;;;18.90;49.13;99942.38;10489922;28;20052;-75
2023/07/13 06:31:31;;;;;;;1.20;0.90;;;;;;;18.89;49.46;99951.06;10468445;28;20040;-73
2023/07/13 06:36:33;;;;;;;1.40;0.90;;;;;;;18.84;48.91;99943.78;10487891;28;20052;-74
2023/07/13 06:41:35;;;;;;;2.00;1.05;;;;;;;18.84;49.70;99960.47;10490203;28;20518;-74
2023/07/13 06:46:39;;;;;;;1.38;1.00;;;;;;;18.75;49.41;99957.06;10470810;28;20044;-74
2023/07/13 06:51:41;;;;;;;1.17;0.80;;;;;;;18.88;49.63;99966.13;10489784;28;20048;-74
2023/07/13 06:56:43;;;;;;;1.13;1.00;;;;;;;19.06;49.28;99970.22;10470985;28;20048;-74
2023/07/13 07:01:45;;;;;;;2.80;1.10;;;;;;;19.15;48.87;99975.66;10471948;28;20055;-74
2023/07/13 07:06:47;;;;;;;1.17;0.70;;;;;;;19.50;48.17;99979.41;10488510;28;20455;-74
2023/07/13 07:11:50;;;;;;;1.55;0.80;;;;;;;20.04;48.22;99987.16;10487163;28;20506;-74
2023/07/13 07:16:52;;;;;;;1.70;1.00;;;;;;;20.41;47.12;99984.88;10487658;28;20064;-74
2023/07/13 07:21:54;;;;;;;2.05;1.02;;;;;;;20.50;45.89;99987.47;10471681;28;20048;-74
2023/07/13 07:26:56;;;;;;;1.45;0.77;;;;;;;20.37;46.52;99994.31;10481784;28;20053;-74
2023/07/13 07:32:00;;;;;;;1.30;1.05;;;;;;;20.23;47.30;99988.41;10478674;28;20044;-73
2023/07/13 07:37:02;;;;;;;2.28;1.10;;;;;;;20.02;47.43;99989.50;10470251;28;20044;-74
2023/07/13 07:42:05;;;;;;;5.80;1.27;;;;;;;19.92;48.09;99998.38;10486004;28;20052;-74
2023/07/13 07:47:07;;;;;;;1.60;0.90;;;;;;;20.27;48.03;99994.84;10466852;28;20052;-75
2023/07/13 07:52:09;;;;;;;6.57;1.10;;;;;;;20.65;47.84;100003.38;10451416;28;20040;-75
2023/07/13 07:57:12;;;;;;;3.10;1.00;;;;;;;20.78;46.64;100004.81;10488486;28;20044;-75
2023/07/13 08:02:14;;;;;;;1.38;1.00;;;;;;;20.68;47.04;100005.41;10467650;28;20056;-74
2023/07/13 08:07:16;;;;;;;1.73;1.00;;;;;;;20.57;46.94;100001.56;10487177;28;20049;-74
2023/07/13 08:12:18;;;;;;;2.97;1.15;;;;;;;20.77;46.83;100008.78;10454738;28;20045;-74
2023/07/13 08:17:20;;;;;;;1.15;1.05;;;;;;;21.10;46.20;99998.31;10456062;28;20415;-75
2023/07/13 08:22:23;;;;;;;2.63;1.00;;;;;;;21.29;45.38;99989.94;10428601;28;20056;-74
2023/07/13 08:27:26;;;;;;;2.45;1.30;;;;;;;21.46;45.65;99988.69;10460885;28;20041;-75
2023/07/13 08:32:29;;;;;;;2.78;1.08;;;;;;;21.94;44.45;99982.38;10461279;28;20052;-75
2023/07/13 08:37:31;;;;;;;1.90;0.90;;;;;;;22.24;43.91;99988.06;10481376;28;20499;-77
2023/07/13 08:42:40;;;;;;;2.08;1.30;;;;;;;22.41;44.24;99992.31;10481033;28;20041;-75
2023/07/13 08:47:53;;;;;;;2.50;1.33;;;;;;;22.74;44.15;99996.38;10450194;28;20049;-78
2023/07/13 08:52:56;;;;;;;2.83;1.17;;;;;;;23.04;43.04;99996.38;10428435;28;20064;-75
2023/07/13 08:58:06;;;;;;;2.35;1.13;;;;;;;23.13;42.89;99989.31;10428145;28;20053;-75
2023/07/13 09:03:20;;;;;;;3.53;1.08;;;;;;;23.08;42.49;99984.06;10448148;28;20503;-77
2023/07/13 09:08:33;;;;;;;2.53;1.40;;;;;;;23.99;41.37;99981.81;10438391;28;20072;-77
2023/07/13 09:13:42;;;;;;;3.33;1.33;;;;;;;24.00;41.65;99977.81;10461106;28;20049;-76
2023/07/13 09:18:48;;;;;;;3.22;1.25;;;;;;;23.91;42.01;99971.72;10493099;28;20423;-77
2023/07/13 09:23:56;;;;;;;1.40;1.20;;;;;;;23.90;41.11;99978.53;10475882;28;20430;-77
2023/07/13 09:29:24;;;;;;;4.45;1.50;;;;;;;24.13;40.41;99973.53;10442259;28;20048;-77
2023/07/13 09:34:26;;;;;;;2.55;1.42;;;;;;;23.76;42.24;99976.41;10472426;28;20049;-75
2023/07/13 09:39:41;;;;;;;3.28;1.90;;;;;;;22.74;44.18;99974.81;10491383;28;20047;-75
2023/07/13 09:44:43;;;;;;;2.60;1.10;;;;;;;22.45;44.26;99961.63;10472732;28;20045;-75
2023/07/13 09:49:45;;;;;;;4.72;1.23;;;;;;;22.50;44.15;99958.50;10465092;28;20056;-76
2023/07/13 09:54:49;;;;;;;2.40;1.42;;;;;;;22.37;43.92;99955.09;10460068;28;20073;-75
2023/07/13 09:59:52;;;;;;;1.98;1.15;;;;;;;22.24;44.37;99956.53;10418460;28;20041;-75
2023/07/13 10:05:03;;;;;;;1.73;1.10;;;;;;;22.19;43.39;99949.25;10481427;28;20049;-75
2023/07/13 10:10:15;;;;;;;1.75;1.35;;;;;;;21.94;44.56;99953.63;10487325;28;20043;-75
2023/07/13 10:15:21;;;;;;;2.50;1.27;;;;;;;22.09;44.32;99958.28;10462638;28;20087;-75
2023/07/13 10:20:24;;;;;;;5.93;1.42;;;;;;;22.29;44.54;99956.19;10479174;28;20045;-76
2023/07/13 10:25:32;;;;;;;2.22;1.30;;;;;;;22.29;44.07;99963.78;10485180;28;20049;-75
2023/07/13 10:30:39;;;;;;;4.43;1.88;;;;;;;22.29;44.05;99958.19;10489152;28;20033;-75
2023/07/13 10:35:43;;;;;;;6.33;1.73;;;;;;;22.21;43.58;99954.47;10468155;28;20061;-75
2023/07/13 10:41:03;;;;;;;2.03;1.58;;;;;;;22.10;44.14;99956.31;10479143;28;20052;-75
2023/07/13 10:46:07;;;;;;;5.40;1.60;;;;;;;22.36;45.03;99959.09;10460316;28;20534;-76
2023/07/13 10:51:10;;;;;;;1.75;1.20;;;;;;;22.60;44.95;99957.03;10466935;28;20037;-75
2023/07/13 10:56:28;;;;;;;2.55;1.20;;;;;;;22.79;45.95;99954.09;10489325;28;20044;-75
2023/07/13 11:01:40;;;;;;;2.53;1.58;;;;;;;22.98;44.92;99958.75;10463312;28;20045;-75
2023/07/13 11:06:45;;;;;;;2.22;1.42;;;;;;;23.06;44.86;99966.84;10463887;28;20047;-74
2023/07/13 11:11:48;;;;;;;2.53;1.60;;;;;;;22.96;44.43;99970.31;10484249;28;20039;-75
2023/07/13 11:16:50;;;;;;;1.58;1.42;;;;;;;22.63;44.21;99948.69;10480093;28;20037;-74
2023/07/13 11:22:07;;;;;;;2.50;1.48;;;;;;;22.48;44.96;99949.69;10484891;28;20041;-75
2023/07/13 11:27:31;;;;;;;1.45;1.20;;;;;;;22.33;46.00;99959.84;10465041;28;20038;-74
2023/07/13 11:32:33;;;;;;;1.42;1.25;;;;;;;22.48;46.18;99970.06;10429425;28;20040;-74
2023/07/13 11:37:35;;;;;;;2.13;1.30;;;;;;;22.64;45.19;99977.47;10428191;28;20045;-74
2023/07/13 11:42:37;;;;;;;5.28;1.85;;;;;;;22.65;45.99;99984.66;10432625;28;20044;-75
2023/07/13 11:47:40;;;;;;;2.50;1.60;;;;;;;22.61;46.03;99986.63;10451707;28;20409;-75
2023/07/13 11:52:43;;;;;;;3.45;1.90;;;;;;;22.53;46.05;99980.91;10469047;28;20041;-75
2023/07/13 11:57:50;;;;;;;5.18;2.00;;;;;;;22.43;46.71;99987.16;10483096;28;20045;-75
2023/07/13 12:02:53;;;;;;;;;;;;;;;22.46;46.59;99983.59;10463981;28;20041;-74
2023/07/13 12:07:55;;;;;;;3.28;1.92;;;;;;;22.45;47.50;99993.19;10454267;28;19935;-75
2023/07/13 12:13:00;;;;;;;2.17;1.73;;;;;;;22.61;47.33;99998.59;10445291;28;20416;-75
2023/07/13 12:18:02;;;;;;;4.85;1.95;;;;;;;22.56;47.27;99991.34;10465402;28;20037;-75
2023/07/13 12:23:07;;;;;;;2.80;2.35;;;;;;;22.53;47.39;99994.06;10480913;28;20068;-75
2023/07/13 12:28:31;;;;;;;4.25;3.03;;;;;;;22.43;47.71;100001.13;10484380;28;20047;-75
2023/07/13 12:33:33;;;;;;;7.20;2.67;;;;;;;22.33;48.06;100004.56;10463856;28;20037;-75
2023/07/13 12:38:36;;;;;;;4.15;2.75;;;;;;;22.25;48.64;100008.44;10461654;28;20048;-74
2023/07/13 12:43:38;;;;;;;3.70;2.25;;;;;;;21.97;49.44;100008.75;10463116;28;20835;-75
2023/07/13 12:48:41;;;;;;;5.65;2.33;;;;;;;21.94;50.32;100001.91;10445400;28;20041;-75
2023/07/13 12:53:50;;;;;;;3.42;2.47;;;;;;;21.95;50.63;99997.94;10478825;28;20052;-74
2023/07/13 12:58:58;;;;;;;3.65;2.45;;;;;;;21.96;52.00;99999.56;10475934;28;20045;-74
2023/07/13 13:04:06;;;;;;;2.83;2.25;;;;;;;21.86;52.74;99986.22;10469538;28;20052;-74
2023/07/13 13:09:13;;;;;;;3.35;2.35;;;;;;;21.96;52.93;99990.38;10479041;28;20079;-74
2023/07/13 13:14:15;;;;;;;;;;;;;;;21.99;53.05;99998.00;10454137;28;20507;-74
2023/07/13 13:19:28;;;;;;;6.47;2.10;;;;;;;22.01;53.17;99984.47;10471726;28;19921;-73
2023/07/13 13:24:30;;;;;;;5.13;2.38;;;;;;;21.98;52.61;99986.03;10474258;28;20041;-74
2023/07/13 13:29:34;;;;;;;5.00;1.88;;;;;;;21.90;52.12;99984.31;10454043;28;20049;-73
2023/07/13 13:34:36;;;;;;;3.10;2.10;;;;;;;22.02;52.88;99983.28;10477354;28;20044;-74
2023/07/13 13:39:38;;;;;;;4.18;1.77;;;;;;;22.18;52.43;99986.78;10480399;28;20044;-74
2023/07/13 13:44:41;;;;;;;3.40;1.55;;;;;;;22.25;50.92;99981.31;10448950;28;20044;-74
2023/07/13 13:49:43;;;;;;;2.70;2.15;;;;;;;22.34;51.04;99974.63;10467528;28;20459;-74
2023/07/13 13:54:45;;;;;;;3.20;1.95;;;;;;;22.26;50.84;99971.75;10464541;28;20037;-74
2023/07/13 13:59:47;;;;;;;2.65;2.00;;;;;;;22.29;51.53;99975.75;10447357;28;20620;-75
2023/07/13 14:04:56;;;;;;;3.00;1.98;;;;;;;22.38;50.36;99973.50;10478204;28;20981;-74
2023/07/13 14:10:00;;;;;;;4.57;1.90;;;;;;;22.33;49.80;99975.81;10472581;28;20095;-74
2023/07/13 14:15:02;;;;;;;3.85;1.90;;;;;;;22.30;49.79;99976.56;10466322;28;20029;-74
2023/07/13 14:20:10;;;;;;;2.47;1.92;;;;;;;22.26;49.43;99979.31;10486448;28;20048;-74
2023/07/13 14:25:14;;;;;;;2.65;2.05;;;;;;;22.33;49.70;99987.78;10470890;28;20057;-78
2023/07/13 14:30:20;;;;;;;4.70;1.65;;;;;;;22.34;49.79;99983.00;10475037;28;20036;-77
2023/07/13 14:35:23;;;;;;;3.47;1.85;;;;;;;22.45;50.70;99982.00;10459436;28;20037;-77
2023/07/13 14:40:30;;;;;;;3.05;2.05;;;;;;;22.35;50.01;99979.03;10477327;28;20530;-76
2023/07/13 14:45:32;;;;;;;5.10;2.15;;;;;;;22.53;50.00;99975.31;10465655;28;20044;-77
2023/07/13 14:50:35;;;;;;;5.20;2.42;;;;;;;22.71;50.18;99971.94;10462553;28;20037;-77
2023/07/13 14:55:37;;;;;;;7.22;2.25;;;;;;;22.68;49.97;99972.72;10490048;28;20049;-77
2023/07/13 15:00:40;;;;;;;3.47;2.03;;;;;;;22.76;49.58;99963.25;10488883;28;20462;-76
2023/07/13 15:05:42;;;;;;;3.33;2.00;;;;;;;22.62;50.27;99965.84;10488202;28;20048;-77
2023/07/13 15:10:44;;;;;;;2.55;2.08;;;;;;;22.62;49.40;99977.03;10451694;28;20411;-77
2023/07/13 15:15:49;;;;;;;3.40;1.95;;;;;;;22.33;49.84;99978.59;10447803;28;20056;-77
2023/07/13 15:20:55;;;;;;;2.90;1.88;;;;;;;22.25;49.80;99974.91;10461979;28;20533;-77
2023/07/13 15:25:57;;;;;;;4.20;1.33;;;;;;;22.11;49.09;99969.91;10446604;28;20049;-77
2023/07/13 15:30:59;;;;;;;3.08;1.80;;;;;;;22.08;49.33;99975.44;10467840;28;20410;-77
2023/07/13 15:36:04;;;;;;;3.13;1.55;;;;;;;21.97;48.99;99976.03;10484994;28;20043;-79
2023/07/13 15:41:16;;;;;;;3.63;1.70;;;;;;;21.84;49.81;99980.19;10468017;28;20037;-77
2023/07/13 15:46:21;;;;;;;2.15;1.50;;;;;;;21.71;50.12;99978.78;10456692;28;20515;-77
2023/07/13 15:51:25;;;;;;;2.83;1.67;;;;;;;21.68;49.89;99980.31;10452718;28;20052;-76
2023/07/13 15:56:28;;;;;;;2.90;1.88;;;;;;;21.67;49.77;99983.47;10428270;28;20033;-77
2023/07/13 16:01:32;;;;;;;2.88;1.30;;;;;;;21.81;48.45;99977.34;10459224;28;20037;-77
2023/07/13 16:06:36;;;;;;;1.60;1.50;;;;;;;21.81;47.82;99986.53;10477312;28;20414;-76
2023/07/13 16:11:39;;;;;;;5.82;1.50;;;;;;;21.91;46.87;99985.09;10468423;28;20033;-77
2023/07/13 16:16:41;;;;;;;1.30;1.20;;;;;;;22.08;46.67;99987.41;10462877;28;20111;-77
2023/07/13 16:21:46;;;;;;;4.43;1.50;;;;;;;22.03;46.48;99990.47;10458891;28;20038;-77
2023/07/13 16:26:49;;;;;;;3.08;1.50;;;;;;;21.86;46.91;99989.00;10478806;28;20057;-77
2023/07/13 16:31:59;;;;;;;1.35;1.02;;;;;;;21.82;47.56;99992.91;10466174;28;20052;-77
2023/07/13 16:37:04;;;;;;;1.65;1.25;;;;;;;21.79;47.51;99999.25;10483084;28;20037;-77
2023/07/13 16:42:10;;;;;;;3.40;1.73;;;;;;;21.47;48.53;100012.63;10468855;28;20120;-77
2023/07/13 16:47:14;;;;;;;4.38;1.65;;;;;;;20.92;52.29;100028.63;10467898;28;20052;-77
2023/07/13 16:52:20;;;;;;;2.55;1.70;;;;;;;20.34;54.37;100034.84;10478729;28;20041;-76
2023/07/13 16:57:28;;;;;;;6.20;2.10;;;;;;;20.40;54.71;100043.75;10485232;28;20036;-77
2023/07/13 17:02:38;;;;;;;3.67;1.60;;;;;;;20.28;55.17;100041.84;10467699;28;20136;-77
2023/07/13 17:07:42;;;;;;;2.90;1.80;;;;;;;19.49;57.24;100050.13;10434917;28;20036;-77
2023/07/13 17:12:46;;;;;;;4.60;1.75;;;;;;;19.11;57.98;100049.84;10467021;28;20049;-77
2023/07/13 17:17:49;;;;;;;4.38;1.50;;;;;;;18.89;58.05;100056.72;10466974;28;20041;-77
2023/07/13 17:22:51;;;;;;;6.00;1.58;;;;;;;18.60;58.69;100043.91;10446756;28;20041;-75
2023/07/13 17:27:54;;;;;;;2.58;1.70;;;;;;;18.68;58.62;100048.53;10476961;28;20550;-76
2023/07/13 17:32:56;;;;;;;3.00;2.10;;;;;;;18.68;57.53;100040.19;10444530;28;20048;-77
2023/07/13 17:38:00;;;;;;;2.22;1.75;;;;;;;18.45;58.57;100055.72;10482444;28;20052;-76
2023/07/13 17:43:02;;;;;;;4.57;1.73;;;;;;;18.32;59.28;100060.47;10472607;28;20057;-76
2023/07/13 17:48:05;;;;;;;3.63;1.10;;;;;;;18.32;59.14;100060.47;10472779;28;20056;-76
2023/07/13 17:53:08;;;;;;;2.75;1.42;;;;;;;18.29;58.85;100070.28;10487267;28;20054;-77
2023/07/13 17:58:11;;;;;;;4.32;1.55;;;;;;;18.29;58.50;100067.53;10470023;28;20511;-76
2023/07/13 18:03:15;;;;;;;2.42;1.40;;;;;;;18.37;58.18;100071.31;10486693;28;20522;-73
2023/07/13 18:08:20;;;;;;;3.67;1.80;;;;;;;18.31;58.45;100070.75;10479724;28;20044;-75
2023/07/13 18:13:22;;;;;;;2.75;1.50;;;;;;;18.06;58.69;100072.72;10467183;28;20040;-75
2023/07/13 18:18:26;;;;;;;3.40;1.60;;;;;;;17.97;59.38;100073.97;10469548;28;20044;-76
2023/07/13 18:23:28;;;;;;;2.67;1.58;;;;;;;18.32;58.24;100064.03;10471426;28;20055;-76
2023/07/13 18:28:30;;;;;;;3.05;1.90;;;;;;;17.80;58.72;100066.66;10468903;28;20045;-75
2023/07/13 18:33:33;;;;;;;4.43;1.88;;;;;;;17.88;58.21;100070.50;10483021;28;20052;-79
2023/07/13 18:38:36;;;;;;;2.22;1.30;;;;;;;17.83;58.42;100068.72;10440821;28;20050;-78
2023/07/13 18:43:38;;;;;;;2.13;1.40;;;;;;;17.67;58.63;100070.50;10440509;28;20507;-78
2023/07/13 18:48:40;;;;;;;5.68;1.52;;;;;;;17.42;59.27;100073.19;10478188;28;20048;-78
2023/07/13 18:53:42;;;;;;;4.30;1.98;;;;;;;17.43;59.02;100072.06;10474505;28;20441;-78
2023/07/13 18:58:45;;;;;;;0.98;0.88;;;;;;;17.54;58.84;100083.53;10451014;28;20128;-77
2023/07/13 19:03:50;;;;;;;4.20;1.58;;;;;;;17.32;59.19;100087.47;10471435;28;20495;-78
2023/07/13 19:08:53;;;;;;;5.82;2.45;;;;;;;17.22;59.31;100087.09;10472401;28;20643;-78
2023/07/13 19:13:55;;;;;;;2.38;1.73;;;;;;;17.35;58.63;100086.78;10477423;28;20045;-81
2023/07/13 19:18:59;;;;;;;5.38;1.88;;;;;;;17.09;59.54;100089.00;10480593;28;20061;-79
2023/07/13 19:24:02;;;;;;;3.55;1.20;;;;;;;17.04;60.10;100091.97;10453186;28;20060;-76
2023/07/13 19:29:05;;;;;;;2.17;1.90;;;;;;;17.07;59.84;100102.38;10478078;28;20080;-77
2023/07/13 19:34:07;;;;;;;2.53;1.25;;;;;;;16.92;60.37;100098.25;10477111;28;20047;-77
2023/07/13 19:39:22;;;;;;;6.28;1.92;;;;;;;17.31;59.01;100101.69;10472152;28;20045;-80
2023/07/13 19:44:25;;;;;;;2.58;1.77;;;;;;;17.12;59.23;100105.75;10472408;28;20041;-76
2023/07/13 19:49:28;;;;;;;2.53;1.77;;;;;;;17.08;59.58;100096.50;10466560;28;20045;-77
2023/07/13 19:54:30;;;;;;;3.30;1.73;;;;;;;17.01;59.46;100101.78;10453975;28;20254;-79
2023/07/13 19:59:33;;;;;;;5.18;2.10;;;;;;;16.89;60.01;100107.22;10447765;28;20045;-74
2023/07/13 20:04:35;;;;;;;4.10;2.03;;;;;;;17.03;59.34;100106.97;10476612;28;20083;-74
2023/07/13 20:09:37;;;;;;;6.05;1.92;;;;;;;16.83;60.15;100112.16;10480287;28;20041;-74
2023/07/13 20:14:40;;;;;;;3.00;1.92;;;;;;;17.04;59.68;100105.84;10474460;28;20045;-74
2023/07/13 20:19:42;;;;;;;2.67;1.70;;;;;;;16.88;59.56;100108.38;10453953;28;20049;-74
2023/07/13 20:24:45;;;;;;;4.22;1.60;;;;;;;17.07;58.88;100107.94;10475545;28;20550;-74
2023/07/13 20:29:47;;;;;;;3.55;2.00;;;;;;;16.99;58.49;100101.28;10481195;28;20424;-74
2023/07/13 20:34:49;;;;;;;3.90;1.70;;;;;;;17.03;58.54;100118.06;10478468;28;20041;-74
2023/07/13 20:39:51;;;;;;;3.65;1.80;;;;;;;16.72;58.86;100115.66;10470703;28;20037;-74
2023/07/13 20:44:54;;;;;;;3.60;2.38;;;;;;;17.26;58.00;100113.81;10467334;28;20060;-74
2023/07/13 20:49:57;;;;;;;3.75;1.85;;;;;;;17.47;56.75;100106.28;10471358;28;20045;-73
2023/07/13 20:55:01;;;;;;;3.90;1.70;;;;;;;17.73;56.32;100113.59;10479350;28;20034;-73
2023/07/13 21:00:04;;;;;;;6.00;1.67;;;;;;;17.59;56.36;100119.38;10481675;28;20041;-84
2023/07/13 21:05:21;;;;;;;2.53;1.50;;;;;;;17.54;56.22;100119.63;10468323;28;20049;-75
2023/07/13 21:10:26;;;;;;;2.90;1.65;;;;;;;17.85;56.07;100116.38;10481336;28;20444;-74
2023/07/13 21:15:31;;;;;;;4.05;1.88;;;;;;;17.76;56.13;100119.25;10453366;28;20052;-74
2023/07/13 21:20:35;;;;;;;1.90;1.52;;;;;;;17.84;55.40;100123.06;10487971;28;20045;-73
2023/07/13 21:25:37;;;;;;;2.55;1.73;;;;;;;17.98;55.45;100117.22;10483827;28;20060;-78
2023/07/13 21:30:41;;;;;;;3.05;1.60;;;;;;;17.89;55.43;100117.34;10475880;28;20041;-76
2023/07/13 21:35:44;;;;;;;2.72;1.70;;;;;;;17.48;56.68;100123.72;10483338;28;20041;-76
2023/07/13 21:40:47;;;;;;;2.50;1.60;;;;;;;17.34;57.58;100124.00;10485443;28;20037;-77
2023/07/13 21:45:50;;;;;;;3.90;2.10;;;;;;;17.52;57.53;100121.06;10464030;28;20419;-78
2023/07/13 21:50:55;;;;;;;5.28;2.65;;;;;;;17.61;57.39;100122.63;10473079;28;20053;-78
2023/07/13 21:56:00;;;;;;;4.05;2.10;;;;;;;17.62;57.35;100121.47;10442231;28;20055;-78
2023/07/13 22:01:03;;;;;;;5.80;2.03;;;;;;;17.74;57.46;100115.19;10487267;28;20044;-78
2023/07/13 22:06:12;;;;;;;3.75;2.20;;;;;;;17.55;57.74;100123.19;10486629;28;20045;-79
2023/07/13 22:11:16;;;;;;;3.70;2.20;;;;;;;17.51;58.11;100117.50;10466812;28;20041;-78
2023/07/13 22:16:25;;;;;;;5.65;2.45;;;;;;;17.39;58.85;100103.59;10455281;28;20478;-77
2023/07/13 22:21:31;;;;;;;3.47;2.35;;;;;;;17.43;58.73;100108.09;10480572;28;20423;-78
2023/07/13 22:26:36;;;;;;;5.95;2.47;;;;;;;17.39;58.43;100101.63;10487263;28;20507;-77
2023/07/13 22:31:38;;;;;;;4.10;2.10;;;;;;;17.63;58.47;100100.91;10483270;28;20049;-78
2023/07/13 22:36:41;;;;;;;3.08;2.33;;;;;;;17.46;58.53;100106.63;10487043;28;20524;-80
2023/07/13 22:41:43;;;;;;;3.47;2.03;;;;;;;17.62;58.38;100093.72;10470249;28;20040;-79
2023/07/13 22:46:46;;;;;;;3.72;2.15;;;;;;;17.55;58.86;100106.56;10466471;28;20448;-79
2023/07/13 22:51:48;;;;;;;3.72;2.05;;;;;;;17.56;58.85;100099.84;10464747;28;20546;-78
2023/07/13 22:56:51;;;;;;;3.40;2.40;;;;;;;17.61;58.87;100108.75;10486934;28;20041;-79
2023/07/13 23:01:53;;;;;;;4.90;2.35;;;;;;;17.81;58.31;100097.97;10466264;28;20033;-79
2023/07/13 23:06:56;;;;;;;5.65;2.30;;;;;;;17.83;58.13;100102.03;10483013;28;20056;-76
2023/07/13 23:11:59;;;;;;;6.28;3.00;;;;;;;17.62;59.18;100104.84;10477402;28;20044;-78
2023/07/13 23:17:01;;;;;;;6.85;3.55;;;;;;;17.52;59.50;100102.47;10463682;28;20052;-81
2023/07/13 23:22:05;;;;;;;4.85;3.15;;;;;;;17.42;60.15;100089.84;10449003;28;20037;-79
2023/07/13 23:27:08;;;;;;;7.85;2.63;;;;;;;17.61;59.70;100099.63;10485524;28;20056;-78